CheckWX is a tool to help pilots better visualize weather data.  It is not intended as a substitute for an official pre-flight weather briefing.

13:07:12 UTC

KORD METAR
Chicago O'hare International Airport
Chicago, Illinois, USA
Current

1 hour ago

KORD 201151Z 36003KT 8SM SCT026 SCT045 BKN250 22/21 A3000 RMK AO2 SLP154 T02220211 10239 20217 55008
Observed
Aug-20 @ 11:51 UTC
Wind
  • 360° at 3 KTS
Visibility
8 SM
Flight Rules
VFR
Cloud Levels
  • Scattered at 2,600' AGL
  • Scattered at 4,500' AGL
  • Broken at 25,000' AGL
Temperature
22°C / 72°F
Dewpoint
21°C / 70°F
Humidity
94%
Altimeter
30" Hg
Pressure
1015.92 hPa
Previous

2 hours ago

KORD 201051Z 00000KT 8SM FEW023 SCT040 SCT250 22/21 A2998 RMK AO2 SLP147 T02170211
Observed
Aug-20 @ 10:51 UTC
Visibility
8 SM
Flight Rules
VFR
Cloud Levels
  • Few at 2,300' AGL
  • Scattered at 4,000' AGL
  • Scattered at 25,000' AGL
Temperature
22°C / 72°F
Dewpoint
21°C / 70°F
Humidity
94%
Altimeter
29.98" Hg
Pressure
1015.22 hPa
Previous

3 hours ago

KORD 200951Z 00000KT 8SM FEW050 FEW250 22/21 A3000 RMK AO2 SLP153 T02170211
Observed
Aug-20 @ 09:51 UTC
Visibility
8 SM
Flight Rules
VFR
Cloud Levels
  • Few at 5,000' AGL
  • Few at 25,000' AGL
Temperature
22°C / 72°F
Dewpoint
21°C / 70°F
Humidity
94%
Altimeter
30" Hg
Pressure
1015.92 hPa